Aeroporto :
LOGIN :

Iscrizione | Disclaimer

   EN    FR    IT 

 










Sommario :    VFR   VFR Marginale   IFR   IFR Intensivo   IFR Molto Intensivo
Visibilità : 
Base nubi : 
>= 8 km
>= 3000ft
5 / 8 km
1000 / 3000 ft
1500m / 5 km
500 / 1000 ft
800 / 1500m
200 / 500 ft
< 800m
< 200 ft
Simboli :   Temporali  Nebbia  Neve Forte  Precipitazioni Forti  Vento > 20 kt
SIGMETs :   Varie  Temporali  Ghiacco  Turbolenza  Onda orograficha  Ceneri Vulcaniche






- Altitudine del aeroporto : 348 ft
- Codice IATA : LDV


LFRJ - Landivisiau

ULTIMO METAR :
  • 220700Z AUTO 19004KT 160V220 9999 -RA FEW016/// SCT030/// OVC040/// ///TCU 08/07 Q0991 TEMPO 3000 SHRA BKN015CB BKN030

METARs OBSOLETI :
  • 220630Z AUTO 16008KT 9999 2500 +RA FEW017/// BKN029/// BKN052/// ///CB 08/07 Q0991 TEMPO 3000 SHRA
  • 220600Z AUTO 15005KT 9999 FEW029/// OVC100/// ///TCU 08/06 Q0991 TEMPO 3000 SHRA BKN015CB BKN030
  • 220530Z AUTO 17008KT 7000 -RA SCT024/// BKN037/// BKN050/// ///TCU 08/07 Q0992 TEMPO 3000 SHRA BKN015CB BKN030
  • 220500Z AUTO 19011KT 9999 -RA FEW020/// BKN049/// BKN076/// ///CB 08/06 Q0992
  • 220430Z AUTO 17006KT 9999 SCT027/// BKN041/// BKN050/// ///CB 07/06 Q0992

TAF TAF LFRJ
Valido dal 22 a 06 ore il 22 a 15 ore UTC


220500Z 2206/2215 15008KT 9999 SCT030
TEMPO 2206/2209 3000 SHRA BKN015CB BKN030
PROB30
TEMPO 2206/2209 TSRA
BECMG 2208/2210 BKN020
TEMPO 2209/2215 2000 RA
TEMPO 2211/2214 BKN007
BECMG 2214/2215 BKN010



MetMap, La meteo Aeronautica in un colpo d'occhio ! - Copyright ORBIFLY Dicembre 2007 - Disclaimer

ORBIFLY MET'MAP TEAM :

Programmazione e sviluppo : Alexandra Zaïnal
Concezione e sviluppo : Baudouin d'Aumeries
Co-Programmazione e sviluppo : Marc-Olivier Méhu
Supporto tecnico e logistico : Manuel Goepfert
Aiuto per la traduzione : Arnaldo La Scala

Contatto : metmap@orbifly.com




FONTI E CREDITI :

   NOAA